sensor_id;sensor_type;location;lat;lon;timestamp;pressure;altitude;pressure_sealevel;temperature;humidity
29215;BME280;16252;49.816;7.964;2022-09-27T00:00:23;98096.50;;;13.62;64.49
29215;BME280;16252;49.816;7.964;2022-09-27T00:02:48;98091.28;;;13.61;64.63
29215;BME280;16252;49.816;7.964;2022-09-27T00:05:14;98109.00;;;13.70;64.63
29215;BME280;16252;49.816;7.964;2022-09-27T00:07:40;98108.63;;;13.73;64.62
29215;BME280;16252;49.816;7.964;2022-09-27T00:10:06;98102.06;;;13.76;64.58
29215;BME280;16252;49.816;7.964;2022-09-27T00:12:32;98102.72;;;13.78;64.37
29215;BME280;16252;49.816;7.964;2022-09-27T00:14:58;98093.50;;;13.72;64.50
29215;BME280;16252;49.816;7.964;2022-09-27T00:17:25;98093.34;;;13.74;64.40
29215;BME280;16252;49.816;7.964;2022-09-27T00:19:51;98092.50;;;13.73;64.52
29215;BME280;16252;49.816;7.964;2022-09-27T00:22:16;98099.00;;;13.79;64.42
29215;BME280;16252;49.816;7.964;2022-09-27T00:24:42;98091.84;;;13.71;64.26
29215;BME280;16252;49.816;7.964;2022-09-27T00:27:07;98079.50;;;13.62;64.43
29215;BME280;16252;49.816;7.964;2022-09-27T00:29:32;98064.97;;;13.56;64.44
29215;BME280;16252;49.816;7.964;2022-09-27T00:31:57;98090.53;;;13.67;64.58
29215;BME280;16252;49.816;7.964;2022-09-27T00:34:24;98074.69;;;13.57;64.77
29215;BME280;16252;49.816;7.964;2022-09-27T00:36:51;98103.06;;;13.75;64.80
29215;BME280;16252;49.816;7.964;2022-09-27T00:39:17;98076.53;;;13.57;64.54
29215;BME280;16252;49.816;7.964;2022-09-27T00:41:42;98078.94;;;13.52;64.38
29215;BME280;16252;49.816;7.964;2022-09-27T00:47:13;98110.94;;;13.76;64.26
29215;BME280;16252;49.816;7.964;2022-09-27T00:49:48;98104.84;;;13.68;64.70
29215;BME280;16252;49.816;7.964;2022-09-27T00:52:21;98098.81;;;13.65;64.50
29215;BME280;16252;49.816;7.964;2022-09-27T00:54:53;98083.97;;;13.55;64.65
29215;BME280;16252;49.816;7.964;2022-09-27T00:57:21;98076.72;;;13.55;64.30
29215;BME280;16252;49.816;7.964;2022-09-27T00:59:52;98090.75;;;13.65;64.60
29215;BME280;16252;49.816;7.964;2022-09-27T01:02:20;98033.16;;;13.30;64.44
29215;BME280;16252;49.816;7.964;2022-09-27T01:04:56;98034.09;;;13.37;64.54
29215;BME280;16252;49.816;7.964;2022-09-27T01:07:31;98031.97;;;13.33;64.71
29215;BME280;16252;49.816;7.964;2022-09-27T01:10:02;98052.34;;;13.42;64.49
29215;BME280;16252;49.816;7.964;2022-09-27T01:12:56;98089.28;;;13.78;64.41
29215;BME280;16252;49.816;7.964;2022-09-27T01:26:12;98098.25;;;13.70;64.14
29215;BME280;16252;49.816;7.964;2022-09-27T01:29:15;98085.38;;;13.65;64.25
29215;BME280;16252;49.816;7.964;2022-09-27T01:34:38;98101.94;;;13.69;63.91
29215;BME280;16252;49.816;7.964;2022-09-27T01:37:30;98101.47;;;13.65;64.39
29215;BME280;16252;49.816;7.964;2022-09-27T01:40:10;98084.13;;;13.53;64.21
29215;BME280;16252;49.816;7.964;2022-09-27T01:42:49;98095.16;;;13.58;64.25
29215;BME280;16252;49.816;7.964;2022-09-27T01:45:30;98033.00;;;13.23;64.44
29215;BME280;16252;49.816;7.964;2022-09-27T01:48:00;98097.19;;;13.56;64.43
29215;BME280;16252;49.816;7.964;2022-09-27T01:50:32;98062.16;;;13.35;64.51
29215;BME280;16252;49.816;7.964;2022-09-27T01:53:06;98061.13;;;13.36;64.58
29215;BME280;16252;49.816;7.964;2022-09-27T01:55:36;98053.59;;;13.31;64.52
29215;BME280;16252;49.816;7.964;2022-09-27T02:00:34;98061.66;;;13.31;64.46
29215;BME280;16252;49.816;7.964;2022-09-27T02:03:13;98100.66;;;13.65;64.52
29215;BME280;16252;49.816;7.964;2022-09-27T02:05:43;98101.00;;;13.62;64.82
29215;BME280;16252;49.816;7.964;2022-09-27T02:08:13;98106.22;;;13.78;63.27
29215;BME280;16252;49.816;7.964;2022-09-27T02:10:40;98105.53;;;13.61;64.26
29215;BME280;16252;49.816;7.964;2022-09-27T02:13:21;98108.16;;;13.70;63.96
29215;BME280;16252;49.816;7.964;2022-09-27T02:16:07;98095.63;;;13.62;64.10
29215;BME280;16252;49.816;7.964;2022-09-27T02:18:50;98096.00;;;13.59;64.01
29215;BME280;16252;49.816;7.964;2022-09-27T02:21:19;98115.84;;;13.58;64.13
29215;BME280;16252;49.816;7.964;2022-09-27T02:23:53;98125.00;;;13.63;63.77
29215;BME280;16252;49.816;7.964;2022-09-27T02:26:26;98134.28;;;13.61;63.79
29215;BME280;16252;49.816;7.964;2022-09-27T02:29:19;98139.56;;;13.69;63.75
29215;BME280;16252;49.816;7.964;2022-09-27T02:31:46;98105.59;;;13.38;63.90
29215;BME280;16252;49.816;7.964;2022-09-27T02:34:18;98134.63;;;13.58;64.38
29215;BME280;16252;49.816;7.964;2022-09-27T02:36:46;98134.34;;;13.53;63.88
29215;BME280;16252;49.816;7.964;2022-09-27T02:39:12;98139.34;;;13.56;64.08
29215;BME280;16252;49.816;7.964;2022-09-27T02:41:37;98148.38;;;13.63;63.68
29215;BME280;16252;49.816;7.964;2022-09-27T02:44:05;98128.97;;;13.53;63.90
29215;BME280;16252;49.816;7.964;2022-09-27T02:49:31;98149.19;;;13.63;63.29
29215;BME280;16252;49.816;7.964;2022-09-27T02:52:22;98174.31;;;13.71;63.41
29215;BME280;16252;49.816;7.964;2022-09-27T02:55:12;98157.72;;;13.67;63.35
29215;BME280;16252;49.816;7.964;2022-09-27T02:57:53;98176.00;;;13.72;63.51
29215;BME280;16252;49.816;7.964;2022-09-27T03:00:29;98164.84;;;13.60;63.27
29215;BME280;16252;49.816;7.964;2022-09-27T03:03:03;98195.81;;;13.71;63.33
29215;BME280;16252;49.816;7.964;2022-09-27T03:05:36;98162.22;;;13.52;63.14
29215;BME280;16252;49.816;7.964;2022-09-27T03:08:03;98181.97;;;13.59;63.29
29215;BME280;16252;49.816;7.964;2022-09-27T03:10:28;98183.97;;;13.65;62.95
29215;BME280;16252;49.816;7.964;2022-09-27T03:12:55;98164.06;;;13.51;62.78
29215;BME280;16252;49.816;7.964;2022-09-27T03:15:21;98196.00;;;13.69;62.64
29215;BME280;16252;49.816;7.964;2022-09-27T03:17:46;98176.97;;;13.56;62.46
29215;BME280;16252;49.816;7.964;2022-09-27T03:20:12;98202.41;;;13.68;62.50
29215;BME280;16252;49.816;7.964;2022-09-27T03:22:37;98182.50;;;13.54;62.62
29215;BME280;16252;49.816;7.964;2022-09-27T03:25:05;98179.38;;;13.51;62.17
29215;BME280;16252;49.816;7.964;2022-09-27T03:27:30;98066.69;;;12.88;62.17
29215;BME280;16252;49.816;7.964;2022-09-27T03:29:56;98181.31;;;13.57;61.89
29215;BME280;16252;49.816;7.964;2022-09-27T03:32:21;98177.72;;;13.50;62.10
29215;BME280;16252;49.816;7.964;2022-09-27T03:34:46;98182.72;;;13.53;61.80
29215;BME280;16252;49.816;7.964;2022-09-27T03:37:12;98172.03;;;13.44;62.01
29215;BME280;16252;49.816;7.964;2022-09-27T03:39:38;98168.69;;;13.42;61.81
29215;BME280;16252;49.816;7.964;2022-09-27T03:42:04;98203.47;;;13.59;61.87
29215;BME280;16252;49.816;7.964;2022-09-27T03:44:30;98191.13;;;13.50;61.80
29215;BME280;16252;49.816;7.964;2022-09-27T03:46:56;98190.47;;;13.48;61.75
29215;BME280;16252;49.816;7.964;2022-09-27T03:49:22;98187.97;;;13.46;61.84
29215;BME280;16252;49.816;7.964;2022-09-27T03:51:48;98205.03;;;13.53;61.85
29215;BME280;16252;49.816;7.964;2022-09-27T03:54:13;98191.19;;;13.41;61.92
29215;BME280;16252;49.816;7.964;2022-09-27T03:56:38;98175.28;;;13.32;62.00
29215;BME280;16252;49.816;7.964;2022-09-27T03:59:03;98205.75;;;13.47;61.94
29215;BME280;16252;49.816;7.964;2022-09-27T04:01:29;98197.88;;;13.46;61.92
29215;BME280;16252;49.816;7.964;2022-09-27T04:03:54;98174.13;;;13.26;61.85
29215;BME280;16252;49.816;7.964;2022-09-27T04:06:19;98216.16;;;13.50;62.00
29215;BME280;16252;49.816;7.964;2022-09-27T04:08:45;98201.28;;;13.39;61.81
29215;BME280;16252;49.816;7.964;2022-09-27T04:11:11;98215.84;;;13.45;61.87
29215;BME280;16252;49.816;7.964;2022-09-27T04:13:36;98208.69;;;13.37;61.90
29215;BME280;16252;49.816;7.964;2022-09-27T04:16:02;98222.59;;;13.41;61.81
29215;BME280;16252;49.816;7.964;2022-09-27T04:18:27;98203.00;;;13.24;61.72
29215;BME280;16252;49.816;7.964;2022-09-27T04:20:53;98199.38;;;13.17;61.68
29215;BME280;16252;49.816;7.964;2022-09-27T04:23:18;98214.78;;;13.23;61.75
29215;BME280;16252;49.816;7.964;2022-09-27T04:25:44;98197.59;;;13.09;61.83
29215;BME280;16252;49.816;7.964;2022-09-27T04:28:10;98225.16;;;13.26;61.67
29215;BME280;16252;49.816;7.964;2022-09-27T04:30:35;98213.34;;;13.12;61.96
29215;BME280;16252;49.816;7.964;2022-09-27T04:33:00;98175.38;;;12.92;61.81
29215;BME280;16252;49.816;7.964;2022-09-27T04:35:25;98210.16;;;13.09;61.75
29215;BME280;16252;49.816;7.964;2022-09-27T04:38:09;98224.75;;;13.14;61.85
29215;BME280;16252;49.816;7.964;2022-09-27T04:40:35;98201.84;;;12.95;61.68
29215;BME280;16252;49.816;7.964;2022-09-27T04:43:01;98231.31;;;13.12;61.89
29215;BME280;16252;49.816;7.964;2022-09-27T04:45:28;98236.84;;;13.10;61.66
29215;BME280;16252;49.816;7.964;2022-09-27T04:47:53;98234.16;;;13.10;61.72
29215;BME280;16252;49.816;7.964;2022-09-27T04:50:18;98203.91;;;12.85;61.79
29215;BME280;16252;49.816;7.964;2022-09-27T04:52:49;98243.03;;;13.11;61.94
29215;BME280;16252;49.816;7.964;2022-09-27T04:55:14;98230.34;;;13.05;61.71
29215;BME280;16252;49.816;7.964;2022-09-27T04:57:39;98225.19;;;12.95;61.78
29215;BME280;16252;49.816;7.964;2022-09-27T05:00:05;98220.31;;;12.90;61.58
29215;BME280;16252;49.816;7.964;2022-09-27T05:02:31;98197.75;;;12.76;61.57
29215;BME280;16252;49.816;7.964;2022-09-27T05:04:56;98234.38;;;13.00;61.58
29215;BME280;16252;49.816;7.964;2022-09-27T05:07:25;98220.69;;;12.87;61.48
29215;BME280;16252;49.816;7.964;2022-09-27T05:09:50;98252.31;;;13.00;61.46
29215;BME280;16252;49.816;7.964;2022-09-27T05:12:16;98237.09;;;12.92;61.46
29215;BME280;16252;49.816;7.964;2022-09-27T05:14:41;98231.41;;;12.87;61.37
29215;BME280;16252;49.816;7.964;2022-09-27T05:17:07;98202.00;;;12.63;61.48
29215;BME280;16252;49.816;7.964;2022-09-27T05:19:34;98228.13;;;12.77;61.29
29215;BME280;16252;49.816;7.964;2022-09-27T05:21:59;98250.56;;;12.84;61.45
29215;BME280;16252;49.816;7.964;2022-09-27T05:24:24;98260.78;;;12.89;61.71
29215;BME280;16252;49.816;7.964;2022-09-27T05:26:52;98237.81;;;12.78;61.45
29215;BME280;16252;49.816;7.964;2022-09-27T05:29:17;98272.97;;;12.99;61.30
29215;BME280;16252;49.816;7.964;2022-09-27T05:31:42;98255.25;;;12.82;61.32
29215;BME280;16252;49.816;7.964;2022-09-27T05:34:08;98280.19;;;12.99;61.24
29215;BME280;16252;49.816;7.964;2022-09-27T05:36:34;98250.88;;;12.81;61.31
29215;BME280;16252;49.816;7.964;2022-09-27T05:39:00;98266.00;;;12.82;61.21
29215;BME280;16252;49.816;7.964;2022-09-27T05:41:26;98256.91;;;12.83;61.16
29215;BME280;16252;49.816;7.964;2022-09-27T05:43:51;98257.75;;;12.84;61.17
29215;BME280;16252;49.816;7.964;2022-09-27T05:46:16;98250.56;;;12.76;61.29
29215;BME280;16252;49.816;7.964;2022-09-27T05:48:42;98285.41;;;12.92;61.24
29215;BME280;16252;49.816;7.964;2022-09-27T05:51:07;98268.69;;;12.82;61.23
29215;BME280;16252;49.816;7.964;2022-09-27T05:53:32;98253.97;;;12.70;61.00
29215;BME280;16252;49.816;7.964;2022-09-27T05:56:02;98273.84;;;12.84;61.35
29215;BME280;16252;49.816;7.964;2022-09-27T05:58:28;98259.69;;;12.67;61.14
29215;BME280;16252;49.816;7.964;2022-09-27T06:00:53;98288.78;;;12.86;61.27
29215;BME280;16252;49.816;7.964;2022-09-27T06:03:18;98301.88;;;12.89;61.32
29215;BME280;16252;49.816;7.964;2022-09-27T06:05:44;98292.31;;;12.87;61.27
29215;BME280;16252;49.816;7.964;2022-09-27T06:08:10;98320.09;;;13.02;61.13
29215;BME280;16252;49.816;7.964;2022-09-27T06:10:37;98305.03;;;12.93;61.15
29215;BME280;16252;49.816;7.964;2022-09-27T06:13:08;98307.50;;;13.02;61.12
29215;BME280;16252;49.816;7.964;2022-09-27T06:15:36;98310.38;;;13.01;61.16
29215;BME280;16252;49.816;7.964;2022-09-27T06:18:11;98324.09;;;13.14;60.92
29215;BME280;16252;49.816;7.964;2022-09-27T06:20:38;98328.28;;;13.09;60.66
29215;BME280;16252;49.816;7.964;2022-09-27T06:23:05;98310.91;;;12.96;60.68
29215;BME280;16252;49.816;7.964;2022-09-27T06:25:32;98332.47;;;13.11;60.47
29215;BME280;16252;49.816;7.964;2022-09-27T06:27:57;98338.69;;;13.12;60.35
29215;BME280;16252;49.816;7.964;2022-09-27T06:30:22;98316.59;;;12.93;60.43
29215;BME280;16252;49.816;7.964;2022-09-27T06:32:47;98319.59;;;12.98;60.49
29215;BME280;16252;49.816;7.964;2022-09-27T06:35:13;98345.91;;;13.11;60.58
29215;BME280;16252;49.816;7.964;2022-09-27T06:37:38;98348.41;;;13.13;60.38
29215;BME280;16252;49.816;7.964;2022-09-27T06:40:04;98336.53;;;13.07;60.38
29215;BME280;16252;49.816;7.964;2022-09-27T06:42:29;98356.94;;;13.25;60.39
29215;BME280;16252;49.816;7.964;2022-09-27T06:44:54;98325.44;;;13.10;60.11
29215;BME280;16252;49.816;7.964;2022-09-27T06:47:20;98344.03;;;13.20;60.07
29215;BME280;16252;49.816;7.964;2022-09-27T06:49:45;98349.88;;;13.23;59.83
29215;BME280;16252;49.816;7.964;2022-09-27T06:52:10;98369.53;;;13.32;59.97
29215;BME280;16252;49.816;7.964;2022-09-27T06:54:36;98354.59;;;13.30;59.98
29215;BME280;16252;49.816;7.964;2022-09-27T06:57:01;98367.63;;;13.41;59.93
29215;BME280;16252;49.816;7.964;2022-09-27T06:59:26;98352.38;;;13.33;59.92
29215;BME280;16252;49.816;7.964;2022-09-27T07:02:10;98350.69;;;13.40;60.13
29215;BME280;16252;49.816;7.964;2022-09-27T07:04:38;98372.94;;;13.57;59.96
29215;BME280;16252;49.816;7.964;2022-09-27T07:07:03;98356.53;;;13.44;59.91
29215;BME280;16252;49.816;7.964;2022-09-27T07:09:28;98371.41;;;13.63;59.66
29215;BME280;16252;49.816;7.964;2022-09-27T07:11:53;98378.94;;;13.68;59.77
29215;BME280;16252;49.816;7.964;2022-09-27T07:14:19;98369.38;;;13.65;59.46
29215;BME280;16252;49.816;7.964;2022-09-27T07:16:44;98409.84;;;13.95;59.29
29215;BME280;16252;49.816;7.964;2022-09-27T07:19:09;98400.09;;;13.94;59.48
29215;BME280;16252;49.816;7.964;2022-09-27T07:21:37;98404.22;;;14.04;59.25
29215;BME280;16252;49.816;7.964;2022-09-27T07:24:02;98406.03;;;14.12;59.04
29215;BME280;16252;49.816;7.964;2022-09-27T07:26:28;98365.53;;;13.91;59.08
29215;BME280;16252;49.816;7.964;2022-09-27T07:28:53;98389.19;;;14.18;58.68
29215;BME280;16252;49.816;7.964;2022-09-27T07:31:18;98415.81;;;14.28;58.67
29215;BME280;16252;49.816;7.964;2022-09-27T07:33:44;98394.75;;;14.17;58.45
29215;BME280;16252;49.816;7.964;2022-09-27T07:36:10;98382.66;;;14.13;58.47
29215;BME280;16252;49.816;7.964;2022-09-27T07:41:12;98405.25;;;14.26;58.18
29215;BME280;16252;49.816;7.964;2022-09-27T07:43:40;98405.97;;;14.20;58.50
29215;BME280;16252;49.816;7.964;2022-09-27T07:46:05;98411.31;;;14.28;58.27
29215;BME280;16252;49.816;7.964;2022-09-27T07:48:30;98380.34;;;14.09;58.12
29215;BME280;16252;49.816;7.964;2022-09-27T07:50:55;98412.31;;;14.27;58.20
29215;BME280;16252;49.816;7.964;2022-09-27T07:53:21;98406.25;;;14.25;58.30
29215;BME280;16252;49.816;7.964;2022-09-27T07:55:51;98426.03;;;14.41;58.12
29215;BME280;16252;49.816;7.964;2022-09-27T07:58:18;98429.34;;;14.43;57.83
29215;BME280;16252;49.816;7.964;2022-09-27T08:00:43;98414.41;;;14.40;57.96
29215;BME280;16252;49.816;7.964;2022-09-27T08:03:11;98426.59;;;14.51;57.88
29215;BME280;16252;49.816;7.964;2022-09-27T08:05:39;98421.94;;;14.45;57.84
29215;BME280;16252;49.816;7.964;2022-09-27T08:08:04;98406.81;;;14.44;57.54
29215;BME280;16252;49.816;7.964;2022-09-27T08:10:31;98432.41;;;14.63;57.57
29215;BME280;16252;49.816;7.964;2022-09-27T08:12:58;98424.16;;;14.64;57.45
29215;BME280;16252;49.816;7.964;2022-09-27T08:15:25;98423.06;;;14.73;57.38
29215;BME280;16252;49.816;7.964;2022-09-27T08:17:52;98443.25;;;14.92;57.67
29215;BME280;16252;49.816;7.964;2022-09-27T08:20:17;98428.03;;;15.00;57.52
29215;BME280;16252;49.816;7.964;2022-09-27T08:22:42;98440.06;;;15.27;57.47
29215;BME280;16252;49.816;7.964;2022-09-27T08:25:08;98446.09;;;15.44;57.25
29215;BME280;16252;49.816;7.964;2022-09-27T08:27:34;98426.84;;;15.47;56.97
29215;BME280;16252;49.816;7.964;2022-09-27T08:29:59;98428.88;;;15.59;57.12
29215;BME280;16252;49.816;7.964;2022-09-27T08:32:24;98451.22;;;15.83;56.96
29215;BME280;16252;49.816;7.964;2022-09-27T08:34:50;98425.06;;;15.84;56.44
29215;BME280;16252;49.816;7.964;2022-09-27T08:37:15;98427.09;;;15.96;56.06
29215;BME280;16252;49.816;7.964;2022-09-27T08:39:41;98441.53;;;16.10;55.98
29215;BME280;16252;49.816;7.964;2022-09-27T08:42:34;98470.22;;;16.33;55.51
29215;BME280;16252;49.816;7.964;2022-09-27T08:45:08;98466.69;;;16.32;54.85
29215;BME280;16252;49.816;7.964;2022-09-27T08:50:43;98463.00;;;16.33;54.21
29215;BME280;16252;49.816;7.964;2022-09-27T08:58:26;98450.13;;;16.14;54.13
29215;BME280;16252;49.816;7.964;2022-09-27T09:00:54;98466.38;;;16.20;54.28
29215;BME280;16252;49.816;7.964;2022-09-27T09:03:23;98467.22;;;16.21;54.28
29215;BME280;16252;49.816;7.964;2022-09-27T09:06:57;98475.44;;;16.34;54.11
29215;BME280;16252;49.816;7.964;2022-09-27T09:11:50;98467.53;;;16.33;54.14
29215;BME280;16252;49.816;7.964;2022-09-27T09:14:50;98477.09;;;16.35;54.16
29215;BME280;16252;49.816;7.964;2022-09-27T09:20:02;98446.84;;;16.40;53.73
29215;BME280;16252;49.816;7.964;2022-09-27T09:22:44;98475.13;;;16.65;53.35
29215;BME280;16252;49.816;7.964;2022-09-27T09:25:28;98462.09;;;16.69;53.58
29215;BME280;16252;49.816;7.964;2022-09-27T09:33:17;98465.59;;;16.84;52.69
29215;BME280;16252;49.816;7.964;2022-09-27T09:35:52;98468.69;;;16.81;52.34
29215;BME280;16252;49.816;7.964;2022-09-27T09:41:18;98472.00;;;16.83;52.39
29215;BME280;16252;49.816;7.964;2022-09-27T09:44:29;98476.19;;;16.86;52.98
29215;BME280;16252;49.816;7.964;2022-09-27T09:46:58;98462.94;;;16.69;52.52
29215;BME280;16252;49.816;7.964;2022-09-27T09:49:27;98466.28;;;16.72;52.18
29215;BME280;16252;49.816;7.964;2022-09-27T09:52:11;98466.44;;;16.70;52.56
29215;BME280;16252;49.816;7.964;2022-09-27T09:54:42;98472.91;;;16.69;52.01
29215;BME280;16252;49.816;7.964;2022-09-27T09:57:14;98467.50;;;16.69;51.64
29215;BME280;16252;49.816;7.964;2022-09-27T09:59:51;98455.72;;;16.55;51.63
29215;BME280;16252;49.816;7.964;2022-09-27T10:02:34;98468.25;;;16.63;51.82
29215;BME280;16252;49.816;7.964;2022-09-27T10:05:01;98475.09;;;16.59;51.61
29215;BME280;16252;49.816;7.964;2022-09-27T10:07:28;98463.56;;;16.50;51.68
29215;BME280;16252;49.816;7.964;2022-09-27T10:09:56;98455.47;;;16.50;51.50
29215;BME280;16252;49.816;7.964;2022-09-27T10:12:23;98447.09;;;16.45;51.93
29215;BME280;16252;49.816;7.964;2022-09-27T10:14:49;98466.13;;;16.58;51.82
29215;BME280;16252;49.816;7.964;2022-09-27T10:17:24;98441.38;;;16.55;51.55
29215;BME280;16252;49.816;7.964;2022-09-27T10:19:51;98452.44;;;16.60;52.13
29215;BME280;16252;49.816;7.964;2022-09-27T10:22:31;98459.84;;;16.73;51.73
29215;BME280;16252;49.816;7.964;2022-09-27T10:25:02;98432.72;;;16.59;51.64
29215;BME280;16252;49.816;7.964;2022-09-27T10:27:41;98454.97;;;16.83;51.86
29215;BME280;16252;49.816;7.964;2022-09-27T10:30:27;98453.16;;;16.90;51.85
29215;BME280;16252;49.816;7.964;2022-09-27T10:33:03;98435.22;;;16.82;51.68
29215;BME280;16252;49.816;7.964;2022-09-27T10:40:36;98430.41;;;17.06;51.65
29215;BME280;16252;49.816;7.964;2022-09-27T10:43:01;98424.41;;;17.10;51.35
29215;BME280;16252;49.816;7.964;2022-09-27T10:45:32;98431.34;;;17.20;50.79
29215;BME280;16252;49.816;7.964;2022-09-27T10:47:59;98437.19;;;17.23;50.24
29215;BME280;16252;49.816;7.964;2022-09-27T10:50:28;98436.34;;;17.23;50.41
29215;BME280;16252;49.816;7.964;2022-09-27T10:53:13;98424.31;;;17.25;50.77
29215;BME280;16252;49.816;7.964;2022-09-27T10:55:41;98423.59;;;17.10;50.10
29215;BME280;16252;49.816;7.964;2022-09-27T10:58:16;98425.06;;;17.13;50.48
29215;BME280;16252;49.816;7.964;2022-09-27T11:00:42;98400.22;;;16.96;50.36
29215;BME280;16252;49.816;7.964;2022-09-27T11:03:14;98407.31;;;17.03;50.04
29215;BME280;16252;49.816;7.964;2022-09-27T11:05:41;98416.91;;;17.06;50.33
29215;BME280;16252;49.816;7.964;2022-09-27T11:08:23;98408.78;;;17.06;50.54
29215;BME280;16252;49.816;7.964;2022-09-27T11:13:31;98432.88;;;17.01;51.05
29215;BME280;16252;49.816;7.964;2022-09-27T11:27:21;98426.53;;;16.87;51.67
29215;BME280;16252;49.816;7.964;2022-09-27T11:30:04;98429.53;;;16.77;51.62
29215;BME280;16252;49.816;7.964;2022-09-27T11:32:59;98424.31;;;16.76;51.28
29215;BME280;16252;49.816;7.964;2022-09-27T11:49:57;98390.47;;;17.01;51.00
29215;BME280;16252;49.816;7.964;2022-09-27T11:52:37;98380.94;;;17.05;51.12
29215;BME280;16252;49.816;7.964;2022-09-27T11:58:12;98395.59;;;17.18;51.04
29215;BME280;16252;49.816;7.964;2022-09-27T12:00:48;98400.34;;;17.16;51.03
29215;BME280;16252;49.816;7.964;2022-09-27T12:06:15;98416.22;;;16.97;52.59
29215;BME280;16252;49.816;7.964;2022-09-27T12:11:37;98448.09;;;16.59;53.69
29215;BME280;16252;49.816;7.964;2022-09-27T12:14:06;98448.97;;;16.23;54.52
29215;BME280;16252;49.816;7.964;2022-09-27T12:16:36;98435.47;;;15.87;56.48
29215;BME280;16252;49.816;7.964;2022-09-27T12:19:11;98428.81;;;15.53;58.57
29215;BME280;16252;49.816;7.964;2022-09-27T12:21:39;98425.38;;;15.14;58.95
29215;BME280;16252;49.816;7.964;2022-09-27T12:24:17;98395.88;;;14.83;61.36
29215;BME280;16252;49.816;7.964;2022-09-27T12:26:43;98403.47;;;14.65;62.53
29215;BME280;16252;49.816;7.964;2022-09-27T12:29:25;98398.81;;;14.59;63.10
29215;BME280;16252;49.816;7.964;2022-09-27T12:32:13;98430.25;;;14.58;63.86
29215;BME280;16252;49.816;7.964;2022-09-27T12:40:24;98413.50;;;14.48;64.46
29215;BME280;16252;49.816;7.964;2022-09-27T12:42:56;98368.31;;;14.20;65.55
29215;BME280;16252;49.816;7.964;2022-09-27T12:51:20;98384.09;;;14.46;64.55
29215;BME280;16252;49.816;7.964;2022-09-27T12:59:19;98399.88;;;14.87;64.57
29215;BME280;16252;49.816;7.964;2022-09-27T13:01:57;98403.53;;;14.94;65.01
29215;BME280;16252;49.816;7.964;2022-09-27T13:04:40;98401.31;;;15.13;63.79
29215;BME280;16252;49.816;7.964;2022-09-27T13:09:59;98382.91;;;15.31;65.20
29215;BME280;16252;49.816;7.964;2022-09-27T13:12:29;98383.00;;;15.38;63.65
29215;BME280;16252;49.816;7.964;2022-09-27T13:14:59;98390.25;;;15.52;64.26
29215;BME280;16252;49.816;7.964;2022-09-27T13:22:52;98376.72;;;15.67;61.65
29215;BME280;16252;49.816;7.964;2022-09-27T13:25:49;98374.94;;;15.89;61.42
29215;BME280;16252;49.816;7.964;2022-09-27T13:31:09;98362.75;;;15.93;61.36
29215;BME280;16252;49.816;7.964;2022-09-27T13:33:40;98372.00;;;16.06;62.00
29215;BME280;16252;49.816;7.964;2022-09-27T13:47:31;98367.69;;;16.33;59.38
29215;BME280;16252;49.816;7.964;2022-09-27T13:50:27;98290.31;;;15.90;58.65
29215;BME280;16252;49.816;7.964;2022-09-27T13:53:07;98333.84;;;16.09;58.41
29215;BME280;16252;49.816;7.964;2022-09-27T13:55:45;98359.03;;;16.16;57.60
29215;BME280;16252;49.816;7.964;2022-09-27T13:58:26;98362.31;;;16.11;58.48
29215;BME280;16252;49.816;7.964;2022-09-27T14:00:58;98352.41;;;15.97;58.94
29215;BME280;16252;49.816;7.964;2022-09-27T14:03:31;98369.22;;;15.99;59.08
29215;BME280;16252;49.816;7.964;2022-09-27T14:06:04;98288.34;;;15.26;60.07
29215;BME280;16252;49.816;7.964;2022-09-27T14:08:46;98389.09;;;15.76;59.18
29215;BME280;16252;49.816;7.964;2022-09-27T14:11:34;98392.25;;;15.65;58.83
29215;BME280;16252;49.816;7.964;2022-09-27T14:14:02;98393.41;;;15.41;60.01
29215;BME280;16252;49.816;7.964;2022-09-27T14:16:33;98366.94;;;15.15;59.72
29215;BME280;16252;49.816;7.964;2022-09-27T14:19:00;98370.84;;;14.98;59.92
29215;BME280;16252;49.816;7.964;2022-09-27T14:21:32;98399.25;;;15.00;59.66
29215;BME280;16252;49.816;7.964;2022-09-27T14:26:45;98388.69;;;14.61;59.99
29215;BME280;16252;49.816;7.964;2022-09-27T14:29:19;98392.34;;;14.45;59.80
29215;BME280;16252;49.816;7.964;2022-09-27T14:31:45;98401.53;;;14.27;60.22
29215;BME280;16252;49.816;7.964;2022-09-27T14:34:13;98407.00;;;14.19;60.68
29215;BME280;16252;49.816;7.964;2022-09-27T14:36:39;98402.94;;;14.00;60.88
29215;BME280;16252;49.816;7.964;2022-09-27T14:39:27;98345.06;;;13.58;61.41
29215;BME280;16252;49.816;7.964;2022-09-27T14:41:56;98402.41;;;13.74;62.08
29215;BME280;16252;49.816;7.964;2022-09-27T14:44:21;98360.38;;;13.50;61.68
29215;BME280;16252;49.816;7.964;2022-09-27T14:47:06;98342.97;;;13.37;62.25
29215;BME280;16252;49.816;7.964;2022-09-27T14:49:32;98357.59;;;13.35;61.64
29215;BME280;16252;49.816;7.964;2022-09-27T14:51:57;98376.03;;;13.38;62.07
29215;BME280;16252;49.816;7.964;2022-09-27T14:54:26;98390.81;;;13.42;62.10
29215;BME280;16252;49.816;7.964;2022-09-27T14:56:53;98386.78;;;13.38;61.99
29215;BME280;16252;49.816;7.964;2022-09-27T14:59:26;98384.63;;;13.33;62.63
29215;BME280;16252;49.816;7.964;2022-09-27T15:01:56;98394.03;;;13.37;62.65
29215;BME280;16252;49.816;7.964;2022-09-27T15:04:25;98383.63;;;13.34;62.76
29215;BME280;16252;49.816;7.964;2022-09-27T15:06:52;98373.88;;;13.33;63.02
29215;BME280;16252;49.816;7.964;2022-09-27T15:09:18;98376.53;;;13.41;62.60
29215;BME280;16252;49.816;7.964;2022-09-27T15:11:54;98382.66;;;13.58;62.78
29215;BME280;16252;49.816;7.964;2022-09-27T15:14:20;98381.13;;;13.64;62.97
29215;BME280;16252;49.816;7.964;2022-09-27T15:16:49;98392.63;;;13.81;62.32
29215;BME280;16252;49.816;7.964;2022-09-27T15:19:23;98392.22;;;13.92;62.15
29215;BME280;16252;49.816;7.964;2022-09-27T15:21:50;98396.38;;;13.95;62.49
29215;BME280;16252;49.816;7.964;2022-09-27T15:27:00;98381.13;;;13.95;61.81
29215;BME280;16252;49.816;7.964;2022-09-27T15:29:26;98407.72;;;14.13;61.80